sensor_id;sensor_type;location;lat;lon;timestamp;temperature;humidity
64549;DHT22;49838;51.798;10.954;2022-11-15T00:00:10;16.00;43.10
64549;DHT22;49838;51.798;10.954;2022-11-15T00:02:38;16.00;43.00
64549;DHT22;49838;51.798;10.954;2022-11-15T00:05:05;16.10;43.10
64549;DHT22;49838;51.798;10.954;2022-11-15T00:07:33;16.10;43.10
64549;DHT22;49838;51.798;10.954;2022-11-15T00:10:00;16.10;42.90
64549;DHT22;49838;51.798;10.954;2022-11-15T00:12:28;16.00;42.80
64549;DHT22;49838;51.798;10.954;2022-11-15T00:14:57;16.10;42.90
64549;DHT22;49838;51.798;10.954;2022-11-15T00:17:24;16.10;43.00
64549;DHT22;49838;51.798;10.954;2022-11-15T00:19:51;16.10;43.00
64549;DHT22;49838;51.798;10.954;2022-11-15T00:22:19;16.10;43.00
64549;DHT22;49838;51.798;10.954;2022-11-15T00:24:46;16.10;43.00
64549;DHT22;49838;51.798;10.954;2022-11-15T00:27:14;16.10;42.90
64549;DHT22;49838;51.798;10.954;2022-11-15T00:29:41;16.10;43.10
64549;DHT22;49838;51.798;10.954;2022-11-15T00:32:10;16.10;42.90
64549;DHT22;49838;51.798;10.954;2022-11-15T00:34:38;16.20;43.10
64549;DHT22;49838;51.798;10.954;2022-11-15T00:37:05;16.10;43.00
64549;DHT22;49838;51.798;10.954;2022-11-15T00:39:33;16.20;43.20
64549;DHT22;49838;51.798;10.954;2022-11-15T00:42:00;16.20;43.10
64549;DHT22;49838;51.798;10.954;2022-11-15T00:44:27;16.20;43.30
64549;DHT22;49838;51.798;10.954;2022-11-15T00:46:55;16.20;43.20
64549;DHT22;49838;51.798;10.954;2022-11-15T00:49:23;16.20;43.40
64549;DHT22;49838;51.798;10.954;2022-11-15T00:51:51;16.20;43.30
64549;DHT22;49838;51.798;10.954;2022-11-15T00:54:18;16.30;43.60
64549;DHT22;49838;51.798;10.954;2022-11-15T00:56:45;16.30;43.50
64549;DHT22;49838;51.798;10.954;2022-11-15T00:59:13;16.30;43.70
64549;DHT22;49838;51.798;10.954;2022-11-15T01:01:40;16.40;43.80
64549;DHT22;49838;51.798;10.954;2022-11-15T01:04:07;16.40;43.80
64549;DHT22;49838;51.798;10.954;2022-11-15T01:06:36;16.50;44.00
64549;DHT22;49838;51.798;10.954;2022-11-15T01:09:03;16.60;44.20
64549;DHT22;49838;51.798;10.954;2022-11-15T01:11:31;16.60;44.20
64549;DHT22;49838;51.798;10.954;2022-11-15T01:13:58;16.70;44.60
64549;DHT22;49838;51.798;10.954;2022-11-15T01:16:25;16.70;44.60
64549;DHT22;49838;51.798;10.954;2022-11-15T01:18:53;16.80;44.60
64549;DHT22;49838;51.798;10.954;2022-11-15T01:21:20;16.80;44.50
64549;DHT22;49838;51.798;10.954;2022-11-15T01:23:50;16.90;44.50
64549;DHT22;49838;51.798;10.954;2022-11-15T01:26:19;16.90;44.60
64549;DHT22;49838;51.798;10.954;2022-11-15T01:28:47;16.90;44.30
64549;DHT22;49838;51.798;10.954;2022-11-15T01:31:15;17.00;44.40
64549;DHT22;49838;51.798;10.954;2022-11-15T01:33:44;17.00;44.30
64549;DHT22;49838;51.798;10.954;2022-11-15T01:36:13;17.00;44.20
64549;DHT22;49838;51.798;10.954;2022-11-15T01:38:42;17.00;44.30
64549;DHT22;49838;51.798;10.954;2022-11-15T01:41:15;17.00;44.20
64549;DHT22;49838;51.798;10.954;2022-11-15T01:43:44;17.00;44.30
64549;DHT22;49838;51.798;10.954;2022-11-15T01:46:19;17.00;44.10
64549;DHT22;49838;51.798;10.954;2022-11-15T01:48:52;17.00;44.20
64549;DHT22;49838;51.798;10.954;2022-11-15T01:51:23;16.90;44.00
64549;DHT22;49838;51.798;10.954;2022-11-15T01:53:55;16.90;44.00
64549;DHT22;49838;51.798;10.954;2022-11-15T01:56:29;17.00;44.10
64549;DHT22;49838;51.798;10.954;2022-11-15T01:59:00;16.90;43.80
64549;DHT22;49838;51.798;10.954;2022-11-15T02:01:30;16.90;43.80
64549;DHT22;49838;51.798;10.954;2022-11-15T02:03:59;17.00;43.80
64549;DHT22;49838;51.798;10.954;2022-11-15T02:06:32;16.90;43.60
64549;DHT22;49838;51.798;10.954;2022-11-15T02:09:00;16.90;43.60
64549;DHT22;49838;51.798;10.954;2022-11-15T02:11:33;16.90;43.50
64549;DHT22;49838;51.798;10.954;2022-11-15T02:14:00;16.80;43.30
64549;DHT22;49838;51.798;10.954;2022-11-15T02:16:33;16.80;43.30
64549;DHT22;49838;51.798;10.954;2022-11-15T02:19:12;16.80;43.30
64549;DHT22;49838;51.798;10.954;2022-11-15T02:21:57;16.80;43.40
64549;DHT22;49838;51.798;10.954;2022-11-15T02:24:44;16.80;43.50
64549;DHT22;49838;51.798;10.954;2022-11-15T02:27:32;16.70;43.20
64549;DHT22;49838;51.798;10.954;2022-11-15T02:30:19;16.70;43.20
64549;DHT22;49838;51.798;10.954;2022-11-15T02:32:48;16.70;43.20
64549;DHT22;49838;51.798;10.954;2022-11-15T02:35:22;16.70;43.20
64549;DHT22;49838;51.798;10.954;2022-11-15T02:37:56;16.60;43.20
64549;DHT22;49838;51.798;10.954;2022-11-15T02:40:30;16.60;43.10
64549;DHT22;49838;51.798;10.954;2022-11-15T02:43:06;16.60;43.20
64549;DHT22;49838;51.798;10.954;2022-11-15T02:45:58;16.60;43.20
64549;DHT22;49838;51.798;10.954;2022-11-15T02:48:31;16.50;43.20
64549;DHT22;49838;51.798;10.954;2022-11-15T02:51:00;16.50;43.30
64549;DHT22;49838;51.798;10.954;2022-11-15T02:53:29;16.50;43.50
64549;DHT22;49838;51.798;10.954;2022-11-15T02:55:56;16.50;43.40
64549;DHT22;49838;51.798;10.954;2022-11-15T02:58:29;16.50;43.40
64549;DHT22;49838;51.798;10.954;2022-11-15T03:01:12;16.50;43.60
64549;DHT22;49838;51.798;10.954;2022-11-15T03:03:53;16.50;43.50
64549;DHT22;49838;51.798;10.954;2022-11-15T03:06:33;16.60;43.40
64549;DHT22;49838;51.798;10.954;2022-11-15T03:09:07;16.50;43.20
64549;DHT22;49838;51.798;10.954;2022-11-15T03:11:41;16.60;43.20
64549;DHT22;49838;51.798;10.954;2022-11-15T03:14:18;16.60;43.20
64549;DHT22;49838;51.798;10.954;2022-11-15T03:16:54;16.60;43.10
64549;DHT22;49838;51.798;10.954;2022-11-15T03:19:30;16.60;43.20
64549;DHT22;49838;51.798;10.954;2022-11-15T03:22:02;16.60;43.80
64549;DHT22;49838;51.798;10.954;2022-11-15T03:24:33;16.60;43.10
64549;DHT22;49838;51.798;10.954;2022-11-15T03:27:04;16.60;43.00
64549;DHT22;49838;51.798;10.954;2022-11-15T03:29:34;16.60;43.00
64549;DHT22;49838;51.798;10.954;2022-11-15T03:32:07;16.60;43.00
64549;DHT22;49838;51.798;10.954;2022-11-15T03:34:40;16.60;42.90
64549;DHT22;49838;51.798;10.954;2022-11-15T03:37:12;16.60;42.90
64549;DHT22;49838;51.798;10.954;2022-11-15T03:39:43;16.60;42.90
64549;DHT22;49838;51.798;10.954;2022-11-15T03:42:13;16.60;42.80
64549;DHT22;49838;51.798;10.954;2022-11-15T03:44:51;16.50;42.70
64549;DHT22;49838;51.798;10.954;2022-11-15T03:47:23;16.50;42.80
64549;DHT22;49838;51.798;10.954;2022-11-15T03:49:55;16.40;42.80
64549;DHT22;49838;51.798;10.954;2022-11-15T03:52:30;16.40;42.80
64549;DHT22;49838;51.798;10.954;2022-11-15T03:54:59;16.40;43.00
64549;DHT22;49838;51.798;10.954;2022-11-15T03:57:29;16.30;42.90
64549;DHT22;49838;51.798;10.954;2022-11-15T03:59:56;16.30;42.90
64549;DHT22;49838;51.798;10.954;2022-11-15T04:02:25;16.30;43.10
64549;DHT22;49838;51.798;10.954;2022-11-15T04:04:52;16.20;43.10
64549;DHT22;49838;51.798;10.954;2022-11-15T04:07:20;16.20;43.20
64549;DHT22;49838;51.798;10.954;2022-11-15T04:09:47;16.20;43.40
64549;DHT22;49838;51.798;10.954;2022-11-15T04:12:28;16.10;43.40
64549;DHT22;49838;51.798;10.954;2022-11-15T04:14:59;16.20;43.50
64549;DHT22;49838;51.798;10.954;2022-11-15T04:17:36;16.10;43.50
64549;DHT22;49838;51.798;10.954;2022-11-15T04:20:05;16.20;43.60
64549;DHT22;49838;51.798;10.954;2022-11-15T04:22:52;16.20;43.60
64549;DHT22;49838;51.798;10.954;2022-11-15T04:25:37;16.30;43.60
64549;DHT22;49838;51.798;10.954;2022-11-15T04:28:04;16.30;43.60
64549;DHT22;49838;51.798;10.954;2022-11-15T04:30:32;16.30;43.70
64549;DHT22;49838;51.798;10.954;2022-11-15T04:33:01;16.30;43.60
64549;DHT22;49838;51.798;10.954;2022-11-15T04:35:28;16.40;43.70
64549;DHT22;49838;51.798;10.954;2022-11-15T04:37:56;16.40;43.70
64549;DHT22;49838;51.798;10.954;2022-11-15T04:40:23;16.40;43.70
64549;DHT22;49838;51.798;10.954;2022-11-15T04:42:50;16.40;43.80
64549;DHT22;49838;51.798;10.954;2022-11-15T04:45:18;16.40;43.80
64549;DHT22;49838;51.798;10.954;2022-11-15T04:47:46;16.50;43.80
64549;DHT22;49838;51.798;10.954;2022-11-15T04:50:15;16.50;43.90
64549;DHT22;49838;51.798;10.954;2022-11-15T04:52:44;16.50;43.90
64549;DHT22;49838;51.798;10.954;2022-11-15T04:55:17;16.50;43.90
64549;DHT22;49838;51.798;10.954;2022-11-15T04:57:44;16.50;44.00
64549;DHT22;49838;51.798;10.954;2022-11-15T05:00:13;16.60;44.00
64549;DHT22;49838;51.798;10.954;2022-11-15T05:02:41;16.60;44.00
64549;DHT22;49838;51.798;10.954;2022-11-15T05:05:27;16.60;44.20
64549;DHT22;49838;51.798;10.954;2022-11-15T05:07:55;16.60;43.90
64549;DHT22;49838;51.798;10.954;2022-11-15T05:10:22;16.60;44.00
64549;DHT22;49838;51.798;10.954;2022-11-15T05:12:50;16.70;44.00
64549;DHT22;49838;51.798;10.954;2022-11-15T05:15:17;16.60;43.90
64549;DHT22;49838;51.798;10.954;2022-11-15T05:17:44;16.60;43.90
64549;DHT22;49838;51.798;10.954;2022-11-15T05:20:12;16.60;43.90
64549;DHT22;49838;51.798;10.954;2022-11-15T05:22:41;16.50;43.80
64549;DHT22;49838;51.798;10.954;2022-11-15T05:25:08;16.50;43.80
64549;DHT22;49838;51.798;10.954;2022-11-15T05:27:35;16.50;43.90
64549;DHT22;49838;51.798;10.954;2022-11-15T05:30:03;16.50;43.90
64549;DHT22;49838;51.798;10.954;2022-11-15T05:32:31;16.60;44.00
64549;DHT22;49838;51.798;10.954;2022-11-15T05:34:58;16.60;44.00
64549;DHT22;49838;51.798;10.954;2022-11-15T05:37:26;16.60;44.00
64549;DHT22;49838;51.798;10.954;2022-11-15T05:39:55;16.60;43.90
64549;DHT22;49838;51.798;10.954;2022-11-15T05:42:22;16.60;43.90
64549;DHT22;49838;51.798;10.954;2022-11-15T05:44:49;16.70;43.80
64549;DHT22;49838;51.798;10.954;2022-11-15T05:47:18;16.70;43.70
64549;DHT22;49838;51.798;10.954;2022-11-15T05:49:48;16.70;44.20
64549;DHT22;49838;51.798;10.954;2022-11-15T05:52:18;16.70;43.50
64549;DHT22;49838;51.798;10.954;2022-11-15T05:54:49;16.70;43.50
64549;DHT22;49838;51.798;10.954;2022-11-15T05:57:19;16.60;43.40
64549;DHT22;49838;51.798;10.954;2022-11-15T05:59:47;16.60;43.30
64549;DHT22;49838;51.798;10.954;2022-11-15T06:02:14;16.60;44.00
64549;DHT22;49838;51.798;10.954;2022-11-15T06:04:42;16.50;43.40
64549;DHT22;49838;51.798;10.954;2022-11-15T06:07:09;16.50;43.30
64549;DHT22;49838;51.798;10.954;2022-11-15T06:09:36;16.40;43.20
64549;DHT22;49838;51.798;10.954;2022-11-15T06:12:04;16.40;43.20
64549;DHT22;49838;51.798;10.954;2022-11-15T06:14:33;16.40;43.10
64549;DHT22;49838;51.798;10.954;2022-11-15T06:17:00;16.40;43.20
64549;DHT22;49838;51.798;10.954;2022-11-15T06:19:27;16.40;43.20
64549;DHT22;49838;51.798;10.954;2022-11-15T06:21:58;16.30;43.10
64549;DHT22;49838;51.798;10.954;2022-11-15T06:24:28;16.30;43.00
64549;DHT22;49838;51.798;10.954;2022-11-15T06:26:56;16.30;43.00
64549;DHT22;49838;51.798;10.954;2022-11-15T06:29:24;16.30;43.00
64549;DHT22;49838;51.798;10.954;2022-11-15T06:31:53;16.30;43.10
64549;DHT22;49838;51.798;10.954;2022-11-15T06:34:20;16.30;43.10
64549;DHT22;49838;51.798;10.954;2022-11-15T06:36:48;16.30;43.10
64549;DHT22;49838;51.798;10.954;2022-11-15T06:39:15;16.20;43.00
64549;DHT22;49838;51.798;10.954;2022-11-15T06:41:42;16.20;42.90
64549;DHT22;49838;51.798;10.954;2022-11-15T06:44:10;16.20;42.90
64549;DHT22;49838;51.798;10.954;2022-11-15T06:46:37;16.20;42.90
64549;DHT22;49838;51.798;10.954;2022-11-15T06:49:06;16.20;42.90
64549;DHT22;49838;51.798;10.954;2022-11-15T06:51:33;16.20;42.90
64549;DHT22;49838;51.798;10.954;2022-11-15T06:54:01;16.20;42.90
64549;DHT22;49838;51.798;10.954;2022-11-15T06:56:28;16.20;43.10
64549;DHT22;49838;51.798;10.954;2022-11-15T06:58:55;16.20;43.10
64549;DHT22;49838;51.798;10.954;2022-11-15T07:01:23;16.20;43.80
64549;DHT22;49838;51.798;10.954;2022-11-15T07:03:51;16.20;43.20
64549;DHT22;49838;51.798;10.954;2022-11-15T07:06:19;16.30;43.30
64549;DHT22;49838;51.798;10.954;2022-11-15T07:08:47;16.30;43.30
64549;DHT22;49838;51.798;10.954;2022-11-15T07:11:14;16.30;43.20
64549;DHT22;49838;51.798;10.954;2022-11-15T07:13:41;16.40;43.30
64549;DHT22;49838;51.798;10.954;2022-11-15T07:16:09;16.40;43.20
64549;DHT22;49838;51.798;10.954;2022-11-15T07:18:38;16.40;43.20
64549;DHT22;49838;51.798;10.954;2022-11-15T07:21:07;16.50;43.20
64549;DHT22;49838;51.798;10.954;2022-11-15T07:23:39;16.50;43.20
64549;DHT22;49838;51.798;10.954;2022-11-15T07:26:07;16.60;43.20
64549;DHT22;49838;51.798;10.954;2022-11-15T07:28:35;16.60;43.10
64549;DHT22;49838;51.798;10.954;2022-11-15T07:31:03;16.70;43.20
64549;DHT22;49838;51.798;10.954;2022-11-15T07:33:31;16.80;43.30
64549;DHT22;49838;51.798;10.954;2022-11-15T07:35:58;16.80;43.00
64549;DHT22;49838;51.798;10.954;2022-11-15T07:38:27;16.90;43.10
64549;DHT22;49838;51.798;10.954;2022-11-15T07:40:57;17.10;43.10
64549;DHT22;49838;51.798;10.954;2022-11-15T07:43:25;17.10;43.00
64549;DHT22;49838;51.798;10.954;2022-11-15T07:45:53;17.20;43.00
64549;DHT22;49838;51.798;10.954;2022-11-15T07:48:20;17.30;43.10
64549;DHT22;49838;51.798;10.954;2022-11-15T07:50:48;17.50;43.20
64549;DHT22;49838;51.798;10.954;2022-11-15T07:53:15;17.60;43.10
64549;DHT22;49838;51.798;10.954;2022-11-15T07:55:43;17.70;43.00
64549;DHT22;49838;51.798;10.954;2022-11-15T07:58:12;17.80;43.10
64549;DHT22;49838;51.798;10.954;2022-11-15T08:00:39;18.00;43.10
64549;DHT22;49838;51.798;10.954;2022-11-15T08:03:08;18.00;42.90
64549;DHT22;49838;51.798;10.954;2022-11-15T08:05:37;18.10;43.10
64549;DHT22;49838;51.798;10.954;2022-11-15T08:08:06;18.30;43.10
64549;DHT22;49838;51.798;10.954;2022-11-15T08:10:34;18.40;43.10
64549;DHT22;49838;51.798;10.954;2022-11-15T08:13:02;18.50;43.10
64549;DHT22;49838;51.798;10.954;2022-11-15T08:15:33;18.70;43.10
64549;DHT22;49838;51.798;10.954;2022-11-15T08:18:02;18.80;43.10
64549;DHT22;49838;51.798;10.954;2022-11-15T08:20:31;19.00;43.10
64549;DHT22;49838;51.798;10.954;2022-11-15T08:23:01;19.20;43.00
64549;DHT22;49838;51.798;10.954;2022-11-15T08:25:30;19.20;43.00
64549;DHT22;49838;51.798;10.954;2022-11-15T08:27:59;19.40;43.10
64549;DHT22;49838;51.798;10.954;2022-11-15T08:30:28;19.50;43.10
64549;DHT22;49838;51.798;10.954;2022-11-15T08:32:58;19.70;43.00
64549;DHT22;49838;51.798;10.954;2022-11-15T08:35:25;19.80;43.10
64549;DHT22;49838;51.798;10.954;2022-11-15T08:37:52;20.00;43.10
64549;DHT22;49838;51.798;10.954;2022-11-15T08:40:20;20.50;43.40
64549;DHT22;49838;51.798;10.954;2022-11-15T08:42:48;21.00;44.20
64549;DHT22;49838;51.798;10.954;2022-11-15T08:45:16;21.70;45.30
64549;DHT22;49838;51.798;10.954;2022-11-15T08:47:43;22.50;45.90
64549;DHT22;49838;51.798;10.954;2022-11-15T08:50:12;23.30;46.50
64549;DHT22;49838;51.798;10.954;2022-11-15T08:52:39;24.10;47.10
64549;DHT22;49838;51.798;10.954;2022-11-15T08:55:07;24.90;47.30
64549;DHT22;49838;51.798;10.954;2022-11-15T08:57:35;25.70;47.60
64549;DHT22;49838;51.798;10.954;2022-11-15T09:00:03;26.60;47.90
64549;DHT22;49838;51.798;10.954;2022-11-15T09:02:30;27.40;47.80
64549;DHT22;49838;51.798;10.954;2022-11-15T09:04:58;28.20;47.80
64549;DHT22;49838;51.798;10.954;2022-11-15T09:07:27;29.00;47.70
64549;DHT22;49838;51.798;10.954;2022-11-15T09:09:55;29.40;45.90
64549;DHT22;49838;51.798;10.954;2022-11-15T09:12:23;29.70;44.40
64549;DHT22;49838;51.798;10.954;2022-11-15T09:14:50;29.90;43.70
64549;DHT22;49838;51.798;10.954;2022-11-15T09:17:17;30.10;42.60
64549;DHT22;49838;51.798;10.954;2022-11-15T09:19:45;30.20;42.50
64549;DHT22;49838;51.798;10.954;2022-11-15T09:22:12;30.30;42.10
64549;DHT22;49838;51.798;10.954;2022-11-15T09:24:41;30.40;41.50
64549;DHT22;49838;51.798;10.954;2022-11-15T09:27:08;30.30;41.00
64549;DHT22;49838;51.798;10.954;2022-11-15T09:29:36;30.20;40.80
64549;DHT22;49838;51.798;10.954;2022-11-15T09:32:03;30.00;40.30
64549;DHT22;49838;51.798;10.954;2022-11-15T09:34:31;29.80;40.10
64549;DHT22;49838;51.798;10.954;2022-11-15T09:36:58;29.70;39.20
64549;DHT22;49838;51.798;10.954;2022-11-15T09:39:26;29.60;39.40
64549;DHT22;49838;51.798;10.954;2022-11-15T09:42:01;29.40;39.40
64549;DHT22;49838;51.798;10.954;2022-11-15T09:44:40;29.40;39.00
64549;DHT22;49838;51.798;10.954;2022-11-15T09:50:31;29.00;38.70
64549;DHT22;49838;51.798;10.954;2022-11-15T09:53:01;29.20;39.00
64549;DHT22;49838;51.798;10.954;2022-11-15T09:55:30;29.30;38.90
64549;DHT22;49838;51.798;10.954;2022-11-15T09:58:08;29.40;39.10
64549;DHT22;49838;51.798;10.954;2022-11-15T10:00:44;29.70;39.80
64549;DHT22;49838;51.798;10.954;2022-11-15T10:03:19;30.10;40.30
64549;DHT22;49838;51.798;10.954;2022-11-15T10:05:52;30.30;40.00
64549;DHT22;49838;51.798;10.954;2022-11-15T10:08:25;30.70;39.50
64549;DHT22;49838;51.798;10.954;2022-11-15T10:11:03;30.90;39.60
64549;DHT22;49838;51.798;10.954;2022-11-15T10:13:36;31.30;39.60
64549;DHT22;49838;51.798;10.954;2022-11-15T10:16:09;31.50;38.50
64549;DHT22;49838;51.798;10.954;2022-11-15T10:18:51;31.70;38.50
64549;DHT22;49838;51.798;10.954;2022-11-15T10:21:28;31.90;37.90
64549;DHT22;49838;51.798;10.954;2022-11-15T10:24:05;32.10;38.30
64549;DHT22;49838;51.798;10.954;2022-11-15T10:26:37;32.30;37.50
64549;DHT22;49838;51.798;10.954;2022-11-15T10:29:09;32.40;36.80
64549;DHT22;49838;51.798;10.954;2022-11-15T10:31:37;32.40;36.80
64549;DHT22;49838;51.798;10.954;2022-11-15T10:34:10;32.50;36.70
64549;DHT22;49838;51.798;10.954;2022-11-15T10:36:43;32.60;36.90
64549;DHT22;49838;51.798;10.954;2022-11-15T10:39:12;32.80;36.60
64549;DHT22;49838;51.798;10.954;2022-11-15T10:41:41;33.00;36.70
64549;DHT22;49838;51.798;10.954;2022-11-15T10:44:19;33.10;36.40
64549;DHT22;49838;51.798;10.954;2022-11-15T10:47:04;33.30;37.20
64549;DHT22;49838;51.798;10.954;2022-11-15T10:49:52;33.50;37.60
64549;DHT22;49838;51.798;10.954;2022-11-15T10:52:21;33.80;37.10
64549;DHT22;49838;51.798;10.954;2022-11-15T10:54:50;34.00;36.90
64549;DHT22;49838;51.798;10.954;2022-11-15T10:57:22;34.10;36.40
64549;DHT22;49838;51.798;10.954;2022-11-15T10:59:53;33.80;35.40
64549;DHT22;49838;51.798;10.954;2022-11-15T11:02:27;33.20;35.00
64549;DHT22;49838;51.798;10.954;2022-11-15T11:04:57;32.60;35.00
64549;DHT22;49838;51.798;10.954;2022-11-15T11:07:26;32.10;35.00
64549;DHT22;49838;51.798;10.954;2022-11-15T11:09:58;31.70;35.00
64549;DHT22;49838;51.798;10.954;2022-11-15T11:12:28;31.40;35.20
64549;DHT22;49838;51.798;10.954;2022-11-15T11:14:59;31.10;35.60
64549;DHT22;49838;51.798;10.954;2022-11-15T11:17:32;30.80;35.90
64549;DHT22;49838;51.798;10.954;2022-11-15T11:20:15;30.50;36.00
64549;DHT22;49838;51.798;10.954;2022-11-15T11:22:53;30.30;35.90
64549;DHT22;49838;51.798;10.954;2022-11-15T11:25:30;30.10;35.80
64549;DHT22;49838;51.798;10.954;2022-11-15T11:28:05;30.00;35.90
64549;DHT22;49838;51.798;10.954;2022-11-15T11:30:46;29.80;35.80
64549;DHT22;49838;51.798;10.954;2022-11-15T11:33:20;29.60;35.50
64549;DHT22;49838;51.798;10.954;2022-11-15T11:35:57;29.20;35.50
64549;DHT22;49838;51.798;10.954;2022-11-15T11:41:46;28.50;35.50
64549;DHT22;49838;51.798;10.954;2022-11-15T11:44:22;28.20;35.60
64549;DHT22;49838;51.798;10.954;2022-11-15T11:46:59;27.90;35.60
64549;DHT22;49838;51.798;10.954;2022-11-15T11:49:33;27.60;35.60
64549;DHT22;49838;51.798;10.954;2022-11-15T11:52:07;27.30;35.40
64549;DHT22;49838;51.798;10.954;2022-11-15T11:54:43;26.90;35.20
64549;DHT22;49838;51.798;10.954;2022-11-15T11:57:17;26.60;35.40
64549;DHT22;49838;51.798;10.954;2022-11-15T11:59:55;26.30;35.60
64549;DHT22;49838;51.798;10.954;2022-11-15T12:02:30;26.00;35.80
64549;DHT22;49838;51.798;10.954;2022-11-15T12:05:03;25.80;35.80
64549;DHT22;49838;51.798;10.954;2022-11-15T12:07:37;25.70;36.00
64549;DHT22;49838;51.798;10.954;2022-11-15T12:10:11;25.50;36.00
64549;DHT22;49838;51.798;10.954;2022-11-15T12:12:49;25.40;36.10
64549;DHT22;49838;51.798;10.954;2022-11-15T12:15:23;25.20;36.10
64549;DHT22;49838;51.798;10.954;2022-11-15T12:17:55;25.10;36.20
64549;DHT22;49838;51.798;10.954;2022-11-15T12:20:27;24.90;36.10
64549;DHT22;49838;51.798;10.954;2022-11-15T12:23:00;24.90;36.10
64549;DHT22;49838;51.798;10.954;2022-11-15T12:25:32;24.60;36.10
64549;DHT22;49838;51.798;10.954;2022-11-15T12:28:11;24.60;36.10
64549;DHT22;49838;51.798;10.954;2022-11-15T12:30:45;24.40;36.20
64549;DHT22;49838;51.798;10.954;2022-11-15T12:33:30;24.20;36.20
64549;DHT22;49838;51.798;10.954;2022-11-15T12:36:00;24.20;36.20
64549;DHT22;49838;51.798;10.954;2022-11-15T12:41:22;24.00;36.20
64549;DHT22;49838;51.798;10.954;2022-11-15T12:43:52;23.90;36.40
64549;DHT22;49838;51.798;10.954;2022-11-15T12:46:21;23.70;36.30
64549;DHT22;49838;51.798;10.954;2022-11-15T12:49:02;23.70;36.40
64549;DHT22;49838;51.798;10.954;2022-11-15T13:03:17;23.20;36.40
64549;DHT22;49838;51.798;10.954;2022-11-15T13:05:56;23.10;36.50
64549;DHT22;49838;51.798;10.954;2022-11-15T13:08:37;23.00;36.40
64549;DHT22;49838;51.798;10.954;2022-11-15T13:17:12;22.70;36.40
64549;DHT22;49838;51.798;10.954;2022-11-15T13:19:52;22.60;36.40
64549;DHT22;49838;51.798;10.954;2022-11-15T13:22:26;22.60;36.50
64549;DHT22;49838;51.798;10.954;2022-11-15T13:25:18;22.50;36.40
64549;DHT22;49838;51.798;10.954;2022-11-15T13:27:51;22.50;36.50
64549;DHT22;49838;51.798;10.954;2022-11-15T13:30:20;22.50;36.50
64549;DHT22;49838;51.798;10.954;2022-11-15T13:32:50;22.40;36.50
64549;DHT22;49838;51.798;10.954;2022-11-15T13:35:20;22.40;36.50
64549;DHT22;49838;51.798;10.954;2022-11-15T13:37:51;22.30;36.40
64549;DHT22;49838;51.798;10.954;2022-11-15T13:40:24;22.30;36.50
64549;DHT22;49838;51.798;10.954;2022-11-15T13:42:53;22.30;36.50
64549;DHT22;49838;51.798;10.954;2022-11-15T13:45:22;22.30;36.50
64549;DHT22;49838;51.798;10.954;2022-11-15T13:47:54;22.30;36.50
64549;DHT22;49838;51.798;10.954;2022-11-15T13:50:25;22.30;36.50
64549;DHT22;49838;51.798;10.954;2022-11-15T13:52:57;22.30;36.50
64549;DHT22;49838;51.798;10.954;2022-11-15T13:55:28;22.30;36.50
64549;DHT22;49838;51.798;10.954;2022-11-15T13:57:58;22.30;36.50
64549;DHT22;49838;51.798;10.954;2022-11-15T14:00:33;22.30;36.50
64549;DHT22;49838;51.798;10.954;2022-11-15T14:03:07;22.40;36.50
64549;DHT22;49838;51.798;10.954;2022-11-15T14:05:42;22.40;36.50
64549;DHT22;49838;51.798;10.954;2022-11-15T14:08:21;22.40;36.50
64549;DHT22;49838;51.798;10.954;2022-11-15T14:11:05;22.40;36.50
64549;DHT22;49838;51.798;10.954;2022-11-15T14:13:34;22.40;36.50
64549;DHT22;49838;51.798;10.954;2022-11-15T14:16:15;22.40;36.50
64549;DHT22;49838;51.798;10.954;2022-11-15T14:18:45;22.40;36.50
64549;DHT22;49838;51.798;10.954;2022-11-15T14:21:14;22.40;36.50
64549;DHT22;49838;51.798;10.954;2022-11-15T14:23:42;22.40;36.50
64549;DHT22;49838;51.798;10.954;2022-11-15T14:26:11;22.30;36.50
64549;DHT22;49838;51.798;10.954;2022-11-15T14:28:54;22.30;36.50
64549;DHT22;49838;51.798;10.954;2022-11-15T14:31:21;22.20;36.50
64549;DHT22;49838;51.798;10.954;2022-11-15T14:33:49;22.20;36.50
64549;DHT22;49838;51.798;10.954;2022-11-15T14:36:17;22.10;36.50
64549;DHT22;49838;51.798;10.954;2022-11-15T14:38:47;21.90;36.50
64549;DHT22;49838;51.798;10.954;2022-11-15T14:41:21;21.80;36.50
64549;DHT22;49838;51.798;10.954;2022-11-15T14:43:50;21.70;36.40
64549;DHT22;49838;51.798;10.954;2022-11-15T14:46:18;21.60;36.40
64549;DHT22;49838;51.798;10.954;2022-11-15T14:48:46;21.60;36.40
64549;DHT22;49838;51.798;10.954;2022-11-15T14:51:14;21.50;36.40
64549;DHT22;49838;51.798;10.954;2022-11-15T14:53:44;21.40;36.40
64549;DHT22;49838;51.798;10.954;2022-11-15T14:56:14;21.30;36.40
64549;DHT22;49838;51.798;10.954;2022-11-15T14:58:42;21.20;36.40
64549;DHT22;49838;51.798;10.954;2022-11-15T15:01:11;21.20;36.50
64549;DHT22;49838;51.798;10.954;2022-11-15T15:03:40;21.00;36.40
64549;DHT22;49838;51.798;10.954;2022-11-15T15:06:09;21.00;36.40
64549;DHT22;49838;51.798;10.954;2022-11-15T15:08:38;20.90;36.40
64549;DHT22;49838;51.798;10.954;2022-11-15T15:11:07;20.90;36.40
64549;DHT22;49838;51.798;10.954;2022-11-15T15:13:41;20.90;36.40
64549;DHT22;49838;51.798;10.954;2022-11-15T15:16:08;20.80;36.30
64549;DHT22;49838;51.798;10.954;2022-11-15T15:18:35;20.80;36.40
64549;DHT22;49838;51.798;10.954;2022-11-15T15:21:04;20.70;36.30
64549;DHT22;49838;51.798;10.954;2022-11-15T15:23:44;20.70;36.30
64549;DHT22;49838;51.798;10.954;2022-11-15T15:26:12;20.70;36.30
64549;DHT22;49838;51.798;10.954;2022-11-15T15:28:41;20.70;36.40
64549;DHT22;49838;51.798;10.954;2022-11-15T15:31:08;20.60;36.30
64549;DHT22;49838;51.798;10.954;2022-11-15T15:33:36;20.60;36.90
64549;DHT22;49838;51.798;10.954;2022-11-15T15:36:04;20.60;36.30
64549;DHT22;49838;51.798;10.954;2022-11-15T15:38:37;20.60;36.30
64549;DHT22;49838;51.798;10.954;2022-11-15T15:41:07;20.50;36.30
64549;DHT22;49838;51.798;10.954;2022-11-15T15:43:43;20.50;36.30
64549;DHT22;49838;51.798;10.954;2022-11-15T15:46:12;20.40;36.30
64549;DHT22;49838;51.798;10.954;2022-11-15T15:48:47;20.50;36.40
64549;DHT22;49838;51.798;10.954;2022-11-15T15:51:14;20.40;36.30
64549;DHT22;49838;51.798;10.954;2022-11-15T15:53:41;20.40;36.40
64549;DHT22;49838;51.798;10.954;2022-11-15T15:56:11;20.30;36.30
64549;DHT22;49838;51.798;10.954;2022-11-15T15:58:39;20.30;36.30
64549;DHT22;49838;51.798;10.954;2022-11-15T16:01:07;20.30;36.40
64549;DHT22;49838;51.798;10.954;2022-11-15T16:03:35;20.30;36.40